sensor_id;sensor_type;location;lat;lon;timestamp;P1;durP1;ratioP1;P2;durP2;ratioP2
64609;SDS011;51019;46.090;6.350;2023-08-20T00:01:08;19.67;;;5.35;;
64609;SDS011;51019;46.090;6.350;2023-08-20T00:03:52;17.90;;;6.20;;
64609;SDS011;51019;46.090;6.350;2023-08-20T00:06:20;18.65;;;5.70;;
64609;SDS011;51019;46.090;6.350;2023-08-20T00:08:48;17.15;;;6.13;;
64609;SDS011;51019;46.090;6.350;2023-08-20T00:11:15;15.95;;;5.68;;
64609;SDS011;51019;46.090;6.350;2023-08-20T00:13:43;17.13;;;5.95;;
64609;SDS011;51019;46.090;6.350;2023-08-20T00:16:10;15.80;;;5.13;;
64609;SDS011;51019;46.090;6.350;2023-08-20T00:18:38;17.48;;;5.25;;
64609;SDS011;51019;46.090;6.350;2023-08-20T00:21:07;17.77;;;6.00;;
64609;SDS011;51019;46.090;6.350;2023-08-20T00:23:35;14.98;;;5.70;;
64609;SDS011;51019;46.090;6.350;2023-08-20T00:26:03;17.73;;;5.50;;
64609;SDS011;51019;46.090;6.350;2023-08-20T00:28:30;17.25;;;6.13;;
64609;SDS011;51019;46.090;6.350;2023-08-20T00:30:58;17.98;;;5.82;;
64609;SDS011;51019;46.090;6.350;2023-08-20T00:33:25;20.17;;;7.88;;
64609;SDS011;51019;46.090;6.350;2023-08-20T00:35:52;16.27;;;5.75;;
64609;SDS011;51019;46.090;6.350;2023-08-20T00:38:21;16.90;;;6.38;;
64609;SDS011;51019;46.090;6.350;2023-08-20T00:40:48;17.73;;;5.35;;
64609;SDS011;51019;46.090;6.350;2023-08-20T00:43:15;20.48;;;5.78;;
64609;SDS011;51019;46.090;6.350;2023-08-20T00:45:42;19.50;;;6.28;;
64609;SDS011;51019;46.090;6.350;2023-08-20T00:48:10;17.77;;;6.47;;
64609;SDS011;51019;46.090;6.350;2023-08-20T00:50:38;19.48;;;6.38;;
64609;SDS011;51019;46.090;6.350;2023-08-20T00:53:05;20.55;;;6.03;;
64609;SDS011;51019;46.090;6.350;2023-08-20T00:55:36;19.48;;;5.72;;
64609;SDS011;51019;46.090;6.350;2023-08-20T00:58:03;18.27;;;6.28;;
64609;SDS011;51019;46.090;6.350;2023-08-20T01:00:30;17.17;;;6.07;;
64609;SDS011;51019;46.090;6.350;2023-08-20T01:02:58;15.02;;;5.50;;
64609;SDS011;51019;46.090;6.350;2023-08-20T01:05:25;17.75;;;6.22;;
64609;SDS011;51019;46.090;6.350;2023-08-20T01:07:56;17.13;;;5.88;;
64609;SDS011;51019;46.090;6.350;2023-08-20T01:10:29;18.23;;;6.28;;
64609;SDS011;51019;46.090;6.350;2023-08-20T01:13:05;21.02;;;6.05;;
64609;SDS011;51019;46.090;6.350;2023-08-20T01:15:33;23.35;;;6.43;;
64609;SDS011;51019;46.090;6.350;2023-08-20T01:18:01;20.83;;;6.13;;
64609;SDS011;51019;46.090;6.350;2023-08-20T01:20:29;21.90;;;7.05;;
64609;SDS011;51019;46.090;6.350;2023-08-20T01:23:04;18.90;;;6.13;;
64609;SDS011;51019;46.090;6.350;2023-08-20T01:25:58;21.50;;;6.95;;
64609;SDS011;51019;46.090;6.350;2023-08-20T01:28:40;18.27;;;6.63;;
64609;SDS011;51019;46.090;6.350;2023-08-20T01:31:08;22.02;;;6.38;;
64609;SDS011;51019;46.090;6.350;2023-08-20T01:33:36;19.75;;;6.60;;
64609;SDS011;51019;46.090;6.350;2023-08-20T01:36:06;17.15;;;6.30;;
64609;SDS011;51019;46.090;6.350;2023-08-20T01:38:34;18.55;;;6.30;;
64609;SDS011;51019;46.090;6.350;2023-08-20T01:41:01;18.65;;;6.40;;
64609;SDS011;51019;46.090;6.350;2023-08-20T01:43:29;20.08;;;6.32;;
64609;SDS011;51019;46.090;6.350;2023-08-20T01:45:57;17.50;;;5.90;;
64609;SDS011;51019;46.090;6.350;2023-08-20T01:48:24;16.20;;;5.68;;
64609;SDS011;51019;46.090;6.350;2023-08-20T01:50:51;18.85;;;6.32;;
64609;SDS011;51019;46.090;6.350;2023-08-20T01:53:18;18.42;;;5.75;;
64609;SDS011;51019;46.090;6.350;2023-08-20T01:55:45;19.20;;;5.75;;
64609;SDS011;51019;46.090;6.350;2023-08-20T01:58:12;15.15;;;5.43;;
64609;SDS011;51019;46.090;6.350;2023-08-20T02:00:40;20.00;;;6.28;;
64609;SDS011;51019;46.090;6.350;2023-08-20T02:03:08;16.27;;;5.53;;
64609;SDS011;51019;46.090;6.350;2023-08-20T02:05:35;16.83;;;6.07;;
64609;SDS011;51019;46.090;6.350;2023-08-20T02:08:03;15.95;;;5.63;;
64609;SDS011;51019;46.090;6.350;2023-08-20T02:10:30;20.05;;;6.82;;
64609;SDS011;51019;46.090;6.350;2023-08-20T02:12:57;21.42;;;8.63;;
64609;SDS011;51019;46.090;6.350;2023-08-20T02:15:24;25.20;;;8.00;;
64609;SDS011;51019;46.090;6.350;2023-08-20T02:17:51;19.38;;;8.57;;
64609;SDS011;51019;46.090;6.350;2023-08-20T02:20:20;23.23;;;8.65;;
64609;SDS011;51019;46.090;6.350;2023-08-20T02:22:48;20.20;;;7.80;;
64609;SDS011;51019;46.090;6.350;2023-08-20T02:25:15;19.83;;;6.57;;
64609;SDS011;51019;46.090;6.350;2023-08-20T02:27:42;21.90;;;6.95;;
64609;SDS011;51019;46.090;6.350;2023-08-20T02:30:09;19.95;;;5.95;;
64609;SDS011;51019;46.090;6.350;2023-08-20T02:32:38;20.42;;;6.97;;
64609;SDS011;51019;46.090;6.350;2023-08-20T02:35:06;18.25;;;6.93;;
64609;SDS011;51019;46.090;6.350;2023-08-20T02:37:35;17.83;;;6.80;;
64609;SDS011;51019;46.090;6.350;2023-08-20T02:40:03;19.55;;;7.15;;
64609;SDS011;51019;46.090;6.350;2023-08-20T02:42:31;19.00;;;6.88;;
64609;SDS011;51019;46.090;6.350;2023-08-20T02:44:58;17.58;;;6.50;;
64609;SDS011;51019;46.090;6.350;2023-08-20T02:47:25;19.38;;;6.05;;
64609;SDS011;51019;46.090;6.350;2023-08-20T02:49:52;19.80;;;6.22;;
64609;SDS011;51019;46.090;6.350;2023-08-20T02:52:19;17.77;;;6.85;;
64609;SDS011;51019;46.090;6.350;2023-08-20T02:54:48;16.10;;;6.35;;
64609;SDS011;51019;46.090;6.350;2023-08-20T02:57:15;21.27;;;7.15;;
64609;SDS011;51019;46.090;6.350;2023-08-20T02:59:42;20.38;;;6.47;;
64609;SDS011;51019;46.090;6.350;2023-08-20T03:02:09;17.15;;;5.47;;
64609;SDS011;51019;46.090;6.350;2023-08-20T03:04:36;14.77;;;5.80;;
64609;SDS011;51019;46.090;6.350;2023-08-20T03:07:03;19.83;;;7.93;;
64609;SDS011;51019;46.090;6.350;2023-08-20T03:09:30;19.38;;;6.28;;
64609;SDS011;51019;46.090;6.350;2023-08-20T03:11:58;18.33;;;5.93;;
64609;SDS011;51019;46.090;6.350;2023-08-20T03:14:25;17.63;;;6.40;;
64609;SDS011;51019;46.090;6.350;2023-08-20T03:16:52;21.10;;;7.47;;
64609;SDS011;51019;46.090;6.350;2023-08-20T03:19:19;19.75;;;7.05;;
64609;SDS011;51019;46.090;6.350;2023-08-20T03:21:46;24.08;;;6.82;;
64609;SDS011;51019;46.090;6.350;2023-08-20T03:24:13;16.80;;;6.22;;
64609;SDS011;51019;46.090;6.350;2023-08-20T03:26:40;19.38;;;6.75;;
64609;SDS011;51019;46.090;6.350;2023-08-20T03:29:09;22.77;;;6.32;;
64609;SDS011;51019;46.090;6.350;2023-08-20T03:31:36;18.48;;;6.50;;
64609;SDS011;51019;46.090;6.350;2023-08-20T03:34:03;19.83;;;6.38;;
64609;SDS011;51019;46.090;6.350;2023-08-20T03:36:30;17.40;;;6.05;;
64609;SDS011;51019;46.090;6.350;2023-08-20T03:38:57;19.23;;;6.50;;
64609;SDS011;51019;46.090;6.350;2023-08-20T03:41:24;16.58;;;5.55;;
64609;SDS011;51019;46.090;6.350;2023-08-20T03:43:51;17.48;;;6.55;;
64609;SDS011;51019;46.090;6.350;2023-08-20T03:46:20;20.48;;;6.28;;
64609;SDS011;51019;46.090;6.350;2023-08-20T03:48:47;20.42;;;6.78;;
64609;SDS011;51019;46.090;6.350;2023-08-20T03:51:14;17.75;;;5.95;;
64609;SDS011;51019;46.090;6.350;2023-08-20T03:53:40;16.48;;;6.20;;
64609;SDS011;51019;46.090;6.350;2023-08-20T03:56:07;19.80;;;6.88;;
64609;SDS011;51019;46.090;6.350;2023-08-20T03:58:34;20.60;;;7.85;;
64609;SDS011;51019;46.090;6.350;2023-08-20T04:01:01;20.60;;;7.07;;
64609;SDS011;51019;46.090;6.350;2023-08-20T04:03:30;18.90;;;7.18;;
64609;SDS011;51019;46.090;6.350;2023-08-20T04:05:57;19.85;;;7.53;;
64609;SDS011;51019;46.090;6.350;2023-08-20T04:08:24;20.67;;;7.53;;
64609;SDS011;51019;46.090;6.350;2023-08-20T04:10:51;23.48;;;7.88;;
64609;SDS011;51019;46.090;6.350;2023-08-20T04:13:18;17.70;;;7.80;;
64609;SDS011;51019;46.090;6.350;2023-08-20T04:15:45;24.10;;;9.40;;
64609;SDS011;51019;46.090;6.350;2023-08-20T04:18:12;24.38;;;8.65;;
64609;SDS011;51019;46.090;6.350;2023-08-20T04:20:41;23.05;;;11.00;;
64609;SDS011;51019;46.090;6.350;2023-08-20T04:23:08;24.85;;;10.70;;
64609;SDS011;51019;46.090;6.350;2023-08-20T04:25:35;20.60;;;8.00;;
64609;SDS011;51019;46.090;6.350;2023-08-20T04:28:02;21.70;;;8.52;;
64609;SDS011;51019;46.090;6.350;2023-08-20T04:30:29;18.25;;;7.78;;
64609;SDS011;51019;46.090;6.350;2023-08-20T04:32:56;15.52;;;6.47;;
64609;SDS011;51019;46.090;6.350;2023-08-20T04:35:23;20.40;;;7.90;;
64609;SDS011;51019;46.090;6.350;2023-08-20T04:37:52;15.85;;;6.38;;
64609;SDS011;51019;46.090;6.350;2023-08-20T04:40:19;18.05;;;7.07;;
64609;SDS011;51019;46.090;6.350;2023-08-20T04:42:46;19.95;;;6.70;;
64609;SDS011;51019;46.090;6.350;2023-08-20T04:45:13;19.98;;;6.40;;
64609;SDS011;51019;46.090;6.350;2023-08-20T04:47:43;17.23;;;6.40;;
64609;SDS011;51019;46.090;6.350;2023-08-20T04:50:10;17.88;;;5.97;;
64609;SDS011;51019;46.090;6.350;2023-08-20T04:52:37;17.98;;;6.50;;
64609;SDS011;51019;46.090;6.350;2023-08-20T04:55:06;16.80;;;5.80;;
64609;SDS011;51019;46.090;6.350;2023-08-20T04:57:34;20.73;;;6.80;;
64609;SDS011;51019;46.090;6.350;2023-08-20T05:00:01;16.95;;;6.32;;
64609;SDS011;51019;46.090;6.350;2023-08-20T05:02:28;19.45;;;7.38;;
64609;SDS011;51019;46.090;6.350;2023-08-20T05:04:55;16.25;;;6.22;;
64609;SDS011;51019;46.090;6.350;2023-08-20T05:07:22;19.52;;;6.47;;
64609;SDS011;51019;46.090;6.350;2023-08-20T05:09:49;17.55;;;6.35;;
64609;SDS011;51019;46.090;6.350;2023-08-20T05:12:18;16.25;;;6.57;;
64609;SDS011;51019;46.090;6.350;2023-08-20T05:14:45;17.45;;;7.07;;
64609;SDS011;51019;46.090;6.350;2023-08-20T05:17:12;17.30;;;7.00;;
64609;SDS011;51019;46.090;6.350;2023-08-20T05:19:39;18.15;;;7.05;;
64609;SDS011;51019;46.090;6.350;2023-08-20T05:22:06;18.02;;;7.03;;
64609;SDS011;51019;46.090;6.350;2023-08-20T05:24:33;21.60;;;7.07;;
64609;SDS011;51019;46.090;6.350;2023-08-20T05:27:03;22.13;;;6.88;;
64609;SDS011;51019;46.090;6.350;2023-08-20T05:29:33;17.92;;;6.20;;
64609;SDS011;51019;46.090;6.350;2023-08-20T05:32:00;16.75;;;6.70;;
64609;SDS011;51019;46.090;6.350;2023-08-20T05:34:27;19.15;;;6.78;;
64609;SDS011;51019;46.090;6.350;2023-08-20T05:36:55;16.42;;;6.90;;
64609;SDS011;51019;46.090;6.350;2023-08-20T05:39:23;19.98;;;7.43;;
64609;SDS011;51019;46.090;6.350;2023-08-20T05:41:51;18.73;;;7.47;;
64609;SDS011;51019;46.090;6.350;2023-08-20T05:44:17;19.33;;;7.55;;
64609;SDS011;51019;46.090;6.350;2023-08-20T05:46:46;20.50;;;7.32;;
64609;SDS011;51019;46.090;6.350;2023-08-20T05:49:13;18.95;;;7.22;;
64609;SDS011;51019;46.090;6.350;2023-08-20T05:51:42;17.55;;;6.88;;
64609;SDS011;51019;46.090;6.350;2023-08-20T05:54:09;20.42;;;7.30;;
64609;SDS011;51019;46.090;6.350;2023-08-20T05:56:36;18.33;;;7.40;;
64609;SDS011;51019;46.090;6.350;2023-08-20T05:59:03;19.30;;;7.05;;
64609;SDS011;51019;46.090;6.350;2023-08-20T06:01:31;22.83;;;7.25;;
64609;SDS011;51019;46.090;6.350;2023-08-20T06:03:59;19.42;;;7.07;;
64609;SDS011;51019;46.090;6.350;2023-08-20T06:06:27;19.77;;;6.88;;
64609;SDS011;51019;46.090;6.350;2023-08-20T06:08:54;19.42;;;6.78;;
64609;SDS011;51019;46.090;6.350;2023-08-20T06:11:22;19.63;;;6.93;;
64609;SDS011;51019;46.090;6.350;2023-08-20T06:13:49;19.15;;;7.15;;
64609;SDS011;51019;46.090;6.350;2023-08-20T06:16:16;19.80;;;7.45;;
64609;SDS011;51019;46.090;6.350;2023-08-20T06:18:43;19.40;;;7.53;;
64609;SDS011;51019;46.090;6.350;2023-08-20T06:21:12;19.38;;;7.10;;
64609;SDS011;51019;46.090;6.350;2023-08-20T06:23:39;21.20;;;6.95;;
64609;SDS011;51019;46.090;6.350;2023-08-20T06:26:06;22.58;;;7.55;;
64609;SDS011;51019;46.090;6.350;2023-08-20T06:28:33;18.38;;;6.80;;
64609;SDS011;51019;46.090;6.350;2023-08-20T06:31:01;15.88;;;7.00;;
64609;SDS011;51019;46.090;6.350;2023-08-20T06:33:28;22.30;;;7.70;;
64609;SDS011;51019;46.090;6.350;2023-08-20T06:35:55;24.55;;;7.50;;
64609;SDS011;51019;46.090;6.350;2023-08-20T06:38:24;20.08;;;6.70;;
64609;SDS011;51019;46.090;6.350;2023-08-20T06:40:51;19.58;;;6.90;;
64609;SDS011;51019;46.090;6.350;2023-08-20T06:43:18;17.23;;;6.63;;
64609;SDS011;51019;46.090;6.350;2023-08-20T06:45:45;19.02;;;7.03;;
64609;SDS011;51019;46.090;6.350;2023-08-20T06:48:12;19.38;;;7.30;;
64609;SDS011;51019;46.090;6.350;2023-08-20T06:50:41;18.40;;;7.03;;
64609;SDS011;51019;46.090;6.350;2023-08-20T06:53:08;18.83;;;7.53;;
64609;SDS011;51019;46.090;6.350;2023-08-20T06:55:36;19.23;;;6.45;;
64609;SDS011;51019;46.090;6.350;2023-08-20T06:58:03;21.63;;;6.60;;
64609;SDS011;51019;46.090;6.350;2023-08-20T07:00:30;16.73;;;5.65;;
64609;SDS011;51019;46.090;6.350;2023-08-20T07:02:57;17.70;;;5.97;;
64609;SDS011;51019;46.090;6.350;2023-08-20T07:05:24;18.92;;;6.35;;
64609;SDS011;51019;46.090;6.350;2023-08-20T07:07:52;18.63;;;6.38;;
64609;SDS011;51019;46.090;6.350;2023-08-20T07:10:19;16.98;;;6.15;;
64609;SDS011;51019;46.090;6.350;2023-08-20T07:12:47;21.77;;;7.30;;
64609;SDS011;51019;46.090;6.350;2023-08-20T07:15:14;22.10;;;7.55;;
64609;SDS011;51019;46.090;6.350;2023-08-20T07:17:41;16.42;;;6.43;;
64609;SDS011;51019;46.090;6.350;2023-08-20T07:20:08;21.08;;;6.68;;
64609;SDS011;51019;46.090;6.350;2023-08-20T07:22:36;18.30;;;6.88;;
64609;SDS011;51019;46.090;6.350;2023-08-20T07:25:03;16.38;;;5.97;;
64609;SDS011;51019;46.090;6.350;2023-08-20T07:27:30;18.17;;;6.15;;
64609;SDS011;51019;46.090;6.350;2023-08-20T07:29:59;18.00;;;6.07;;
64609;SDS011;51019;46.090;6.350;2023-08-20T07:32:26;15.90;;;5.82;;
64609;SDS011;51019;46.090;6.350;2023-08-20T07:34:53;15.52;;;5.90;;
64609;SDS011;51019;46.090;6.350;2023-08-20T07:37:20;14.07;;;5.88;;
64609;SDS011;51019;46.090;6.350;2023-08-20T07:39:46;16.48;;;5.65;;
64609;SDS011;51019;46.090;6.350;2023-08-20T07:42:13;15.48;;;5.88;;
64609;SDS011;51019;46.090;6.350;2023-08-20T07:44:41;18.95;;;6.30;;
64609;SDS011;51019;46.090;6.350;2023-08-20T07:47:09;18.50;;;5.90;;
64609;SDS011;51019;46.090;6.350;2023-08-20T07:49:36;17.85;;;6.57;;
64609;SDS011;51019;46.090;6.350;2023-08-20T07:52:03;18.83;;;6.82;;
64609;SDS011;51019;46.090;6.350;2023-08-20T07:54:30;17.58;;;6.45;;
64609;SDS011;51019;46.090;6.350;2023-08-20T07:56:57;17.80;;;6.45;;
64609;SDS011;51019;46.090;6.350;2023-08-20T07:59:24;18.92;;;5.80;;
64609;SDS011;51019;46.090;6.350;2023-08-20T08:01:51;16.02;;;5.97;;
64609;SDS011;51019;46.090;6.350;2023-08-20T08:04:20;18.27;;;6.45;;
64609;SDS011;51019;46.090;6.350;2023-08-20T08:06:47;20.75;;;6.00;;
64609;SDS011;51019;46.090;6.350;2023-08-20T08:09:21;18.40;;;6.22;;
64609;SDS011;51019;46.090;6.350;2023-08-20T08:11:48;17.20;;;5.88;;
64609;SDS011;51019;46.090;6.350;2023-08-20T08:14:15;15.80;;;5.93;;
64609;SDS011;51019;46.090;6.350;2023-08-20T08:16:42;21.90;;;6.43;;
64609;SDS011;51019;46.090;6.350;2023-08-20T08:19:11;16.77;;;6.30;;
64609;SDS011;51019;46.090;6.350;2023-08-20T08:21:40;16.33;;;6.18;;
64609;SDS011;51019;46.090;6.350;2023-08-20T08:24:08;18.65;;;6.00;;
64609;SDS011;51019;46.090;6.350;2023-08-20T08:26:35;21.63;;;7.15;;
64609;SDS011;51019;46.090;6.350;2023-08-20T08:29:02;17.83;;;6.03;;
64609;SDS011;51019;46.090;6.350;2023-08-20T08:31:30;15.85;;;5.50;;
64609;SDS011;51019;46.090;6.350;2023-08-20T08:33:57;19.63;;;5.60;;
64609;SDS011;51019;46.090;6.350;2023-08-20T08:36:24;18.45;;;5.75;;
64609;SDS011;51019;46.090;6.350;2023-08-20T08:38:53;17.13;;;5.93;;
64609;SDS011;51019;46.090;6.350;2023-08-20T08:41:21;23.58;;;5.50;;
64609;SDS011;51019;46.090;6.350;2023-08-20T08:43:49;15.68;;;5.80;;
64609;SDS011;51019;46.090;6.350;2023-08-20T08:46:16;17.70;;;5.82;;
64609;SDS011;51019;46.090;6.350;2023-08-20T08:48:45;15.35;;;5.38;;
64609;SDS011;51019;46.090;6.350;2023-08-20T08:51:13;18.08;;;5.63;;
64609;SDS011;51019;46.090;6.350;2023-08-20T08:53:41;15.65;;;6.00;;
64609;SDS011;51019;46.090;6.350;2023-08-20T08:56:12;14.95;;;5.22;;
64609;SDS011;51019;46.090;6.350;2023-08-20T08:58:38;17.75;;;5.78;;
64609;SDS011;51019;46.090;6.350;2023-08-20T09:01:05;17.08;;;5.85;;
64609;SDS011;51019;46.090;6.350;2023-08-20T09:03:32;15.20;;;5.65;;
64609;SDS011;51019;46.090;6.350;2023-08-20T09:06:00;18.48;;;5.80;;
64609;SDS011;51019;46.090;6.350;2023-08-20T09:08:29;14.88;;;6.10;;
64609;SDS011;51019;46.090;6.350;2023-08-20T09:10:57;18.63;;;6.38;;
64609;SDS011;51019;46.090;6.350;2023-08-20T09:13:32;16.25;;;5.88;;
64609;SDS011;51019;46.090;6.350;2023-08-20T09:16:02;14.68;;;5.53;;
64609;SDS011;51019;46.090;6.350;2023-08-20T09:18:30;15.27;;;5.65;;
64609;SDS011;51019;46.090;6.350;2023-08-20T09:20:58;18.58;;;5.47;;
64609;SDS011;51019;46.090;6.350;2023-08-20T09:23:28;16.90;;;5.78;;
64609;SDS011;51019;46.090;6.350;2023-08-20T09:25:56;16.90;;;5.50;;
64609;SDS011;51019;46.090;6.350;2023-08-20T09:28:23;20.10;;;6.18;;
64609;SDS011;51019;46.090;6.350;2023-08-20T09:30:58;15.30;;;5.20;;
64609;SDS011;51019;46.090;6.350;2023-08-20T09:33:27;17.42;;;5.75;;
64609;SDS011;51019;46.090;6.350;2023-08-20T09:35:55;17.05;;;6.72;;
64609;SDS011;51019;46.090;6.350;2023-08-20T09:38:23;13.52;;;5.60;;
64609;SDS011;51019;46.090;6.350;2023-08-20T09:40:51;15.43;;;5.18;;
64609;SDS011;51019;46.090;6.350;2023-08-20T09:43:21;15.43;;;5.40;;
64609;SDS011;51019;46.090;6.350;2023-08-20T09:45:51;13.80;;;5.75;;
64609;SDS011;51019;46.090;6.350;2023-08-20T09:48:23;19.65;;;6.25;;
64609;SDS011;51019;46.090;6.350;2023-08-20T09:50:55;22.45;;;6.10;;
64609;SDS011;51019;46.090;6.350;2023-08-20T09:53:27;15.93;;;5.65;;
64609;SDS011;51019;46.090;6.350;2023-08-20T09:56:02;16.23;;;5.45;;
64609;SDS011;51019;46.090;6.350;2023-08-20T09:58:37;18.67;;;5.38;;
64609;SDS011;51019;46.090;6.350;2023-08-20T10:01:04;15.88;;;5.65;;
64609;SDS011;51019;46.090;6.350;2023-08-20T10:03:34;16.25;;;5.45;;
64609;SDS011;51019;46.090;6.350;2023-08-20T10:06:03;20.23;;;5.57;;
64609;SDS011;51019;46.090;6.350;2023-08-20T10:08:31;19.83;;;5.72;;
64609;SDS011;51019;46.090;6.350;2023-08-20T10:10:59;15.60;;;5.50;;
64609;SDS011;51019;46.090;6.350;2023-08-20T10:13:26;17.08;;;5.50;;
64609;SDS011;51019;46.090;6.350;2023-08-20T10:15:54;19.15;;;6.03;;
64609;SDS011;51019;46.090;6.350;2023-08-20T10:18:21;14.07;;;5.28;;
64609;SDS011;51019;46.090;6.350;2023-08-20T10:20:51;16.25;;;4.85;;
64609;SDS011;51019;46.090;6.350;2023-08-20T10:23:19;14.15;;;5.35;;
64609;SDS011;51019;46.090;6.350;2023-08-20T10:25:50;14.98;;;5.28;;
64609;SDS011;51019;46.090;6.350;2023-08-20T10:28:20;16.35;;;5.20;;
64609;SDS011;51019;46.090;6.350;2023-08-20T10:31:04;18.10;;;5.30;;
64609;SDS011;51019;46.090;6.350;2023-08-20T10:33:33;13.98;;;5.35;;
64609;SDS011;51019;46.090;6.350;2023-08-20T10:36:09;15.52;;;5.13;;
64609;SDS011;51019;46.090;6.350;2023-08-20T10:38:47;16.10;;;5.05;;
64609;SDS011;51019;46.090;6.350;2023-08-20T10:41:24;13.52;;;5.40;;
64609;SDS011;51019;46.090;6.350;2023-08-20T10:43:51;16.97;;;5.73;;
64609;SDS011;51019;46.090;6.350;2023-08-20T10:46:19;16.00;;;5.07;;
64609;SDS011;51019;46.090;6.350;2023-08-20T10:48:48;24.08;;;5.65;;
64609;SDS011;51019;46.090;6.350;2023-08-20T10:51:18;16.55;;;6.18;;
64609;SDS011;51019;46.090;6.350;2023-08-20T10:54:02;16.35;;;5.40;;
64609;SDS011;51019;46.090;6.350;2023-08-20T10:56:37;19.27;;;5.72;;
64609;SDS011;51019;46.090;6.350;2023-08-20T10:59:07;14.75;;;5.57;;
64609;SDS011;51019;46.090;6.350;2023-08-20T11:01:35;15.48;;;5.50;;
64609;SDS011;51019;46.090;6.350;2023-08-20T11:04:02;14.55;;;5.45;;
64609;SDS011;51019;46.090;6.350;2023-08-20T11:06:33;15.45;;;4.70;;
64609;SDS011;51019;46.090;6.350;2023-08-20T11:09:01;21.08;;;5.68;;
64609;SDS011;51019;46.090;6.350;2023-08-20T11:11:30;18.23;;;5.95;;
64609;SDS011;51019;46.090;6.350;2023-08-20T11:14:03;16.40;;;5.60;;
64609;SDS011;51019;46.090;6.350;2023-08-20T11:16:31;18.33;;;5.43;;
64609;SDS011;51019;46.090;6.350;2023-08-20T11:18:58;14.52;;;4.70;;
64609;SDS011;51019;46.090;6.350;2023-08-20T11:21:25;19.77;;;5.70;;
64609;SDS011;51019;46.090;6.350;2023-08-20T11:23:55;20.38;;;5.55;;
64609;SDS011;51019;46.090;6.350;2023-08-20T11:26:23;16.30;;;5.10;;
64609;SDS011;51019;46.090;6.350;2023-08-20T11:28:51;19.80;;;5.38;;
64609;SDS011;51019;46.090;6.350;2023-08-20T11:31:17;18.33;;;5.65;;
64609;SDS011;51019;46.090;6.350;2023-08-20T11:33:45;17.05;;;5.43;;
64609;SDS011;51019;46.090;6.350;2023-08-20T11:36:14;14.88;;;4.95;;
64609;SDS011;51019;46.090;6.350;2023-08-20T11:38:41;14.65;;;4.95;;
64609;SDS011;51019;46.090;6.350;2023-08-20T11:41:10;16.60;;;5.10;;
64609;SDS011;51019;46.090;6.350;2023-08-20T11:43:37;16.35;;;4.88;;
64609;SDS011;51019;46.090;6.350;2023-08-20T11:46:04;16.35;;;5.00;;
64609;SDS011;51019;46.090;6.350;2023-08-20T11:48:31;16.70;;;4.68;;
64609;SDS011;51019;46.090;6.350;2023-08-20T11:51:02;14.85;;;5.13;;
64609;SDS011;51019;46.090;6.350;2023-08-20T11:53:30;15.05;;;4.93;;
64609;SDS011;51019;46.090;6.350;2023-08-20T11:55:57;12.48;;;4.53;;
64609;SDS011;51019;46.090;6.350;2023-08-20T11:58:28;18.35;;;5.03;;
64609;SDS011;51019;46.090;6.350;2023-08-20T12:00:55;13.02;;;4.90;;
64609;SDS011;51019;46.090;6.350;2023-08-20T12:03:22;16.45;;;4.72;;
64609;SDS011;51019;46.090;6.350;2023-08-20T12:05:56;15.05;;;5.07;;
64609;SDS011;51019;46.090;6.350;2023-08-20T12:08:23;17.00;;;5.15;;
64609;SDS011;51019;46.090;6.350;2023-08-20T12:10:50;15.07;;;5.07;;
64609;SDS011;51019;46.090;6.350;2023-08-20T12:13:17;18.02;;;4.60;;
64609;SDS011;51019;46.090;6.350;2023-08-20T12:15:47;14.73;;;5.10;;
64609;SDS011;51019;46.090;6.350;2023-08-20T12:18:14;18.23;;;5.10;;
64609;SDS011;51019;46.090;6.350;2023-08-20T12:20:41;16.40;;;4.93;;
64609;SDS011;51019;46.090;6.350;2023-08-20T12:23:08;16.85;;;4.45;;
64609;SDS011;51019;46.090;6.350;2023-08-20T12:25:35;12.18;;;4.35;;
64609;SDS011;51019;46.090;6.350;2023-08-20T12:28:02;14.98;;;4.30;;
64609;SDS011;51019;46.090;6.350;2023-08-20T12:30:30;17.90;;;4.70;;
64609;SDS011;51019;46.090;6.350;2023-08-20T12:32:59;18.25;;;4.75;;
64609;SDS011;51019;46.090;6.350;2023-08-20T12:35:27;17.65;;;4.63;;
64609;SDS011;51019;46.090;6.350;2023-08-20T12:37:54;16.92;;;5.20;;
64609;SDS011;51019;46.090;6.350;2023-08-20T12:40:21;14.50;;;4.45;;
64609;SDS011;51019;46.090;6.350;2023-08-20T12:42:48;16.20;;;4.20;;
64609;SDS011;51019;46.090;6.350;2023-08-20T12:45:15;16.45;;;4.50;;
64609;SDS011;51019;46.090;6.350;2023-08-20T12:47:42;19.50;;;4.10;;
64609;SDS011;51019;46.090;6.350;2023-08-20T12:50:11;17.52;;;4.50;;
64609;SDS011;51019;46.090;6.350;2023-08-20T12:52:39;14.98;;;4.43;;
64609;SDS011;51019;46.090;6.350;2023-08-20T12:55:08;16.95;;;4.07;;
64609;SDS011;51019;46.090;6.350;2023-08-20T12:57:35;20.08;;;3.80;;
64609;SDS011;51019;46.090;6.350;2023-08-20T13:00:03;13.68;;;4.07;;
64609;SDS011;51019;46.090;6.350;2023-08-20T13:02:36;13.52;;;4.18;;
64609;SDS011;51019;46.090;6.350;2023-08-20T13:05:04;12.93;;;3.65;;
64609;SDS011;51019;46.090;6.350;2023-08-20T13:07:36;18.42;;;4.30;;
64609;SDS011;51019;46.090;6.350;2023-08-20T13:10:04;16.73;;;4.53;;
64609;SDS011;51019;46.090;6.350;2023-08-20T13:12:33;16.50;;;3.58;;
64609;SDS011;51019;46.090;6.350;2023-08-20T13:15:01;19.17;;;4.10;;
64609;SDS011;51019;46.090;6.350;2023-08-20T13:17:29;19.55;;;3.90;;
64609;SDS011;51019;46.090;6.350;2023-08-20T13:19:56;20.15;;;4.47;;
64609;SDS011;51019;46.090;6.350;2023-08-20T13:22:23;18.48;;;4.25;;
64609;SDS011;51019;46.090;6.350;2023-08-20T13:24:52;14.68;;;4.18;;
64609;SDS011;51019;46.090;6.350;2023-08-20T13:27:19;17.23;;;4.05;;
64609;SDS011;51019;46.090;6.350;2023-08-20T13:29:46;17.20;;;4.50;;
64609;SDS011;51019;46.090;6.350;2023-08-20T13:32:12;17.45;;;4.05;;
64609;SDS011;51019;46.090;6.350;2023-08-20T13:34:40;15.18;;;3.67;;
64609;SDS011;51019;46.090;6.350;2023-08-20T13:37:07;14.80;;;3.85;;
64609;SDS011;51019;46.090;6.350;2023-08-20T13:39:34;15.25;;;3.60;;
64609;SDS011;51019;46.090;6.350;2023-08-20T13:42:02;20.48;;;4.03;;
64609;SDS011;51019;46.090;6.350;2023-08-20T13:44:30;18.17;;;4.80;;
64609;SDS011;51019;46.090;6.350;2023-08-20T13:46:57;16.85;;;3.70;;
64609;SDS011;51019;46.090;6.350;2023-08-20T13:49:23;16.52;;;4.20;;
64609;SDS011;51019;46.090;6.350;2023-08-20T13:51:50;13.95;;;3.92;;
64609;SDS011;51019;46.090;6.350;2023-08-20T13:54:18;14.40;;;3.55;;
64609;SDS011;51019;46.090;6.350;2023-08-20T13:56:45;13.93;;;3.78;;
64609;SDS011;51019;46.090;6.350;2023-08-20T13:59:13;13.05;;;3.38;;
64609;SDS011;51019;46.090;6.350;2023-08-20T14:01:40;14.65;;;3.60;;
64609;SDS011;51019;46.090;6.350;2023-08-20T14:04:07;12.43;;;3.25;;
64609;SDS011;51019;46.090;6.350;2023-08-20T14:06:34;16.58;;;3.70;;
64609;SDS011;51019;46.090;6.350;2023-08-20T14:09:01;12.30;;;3.55;;
64609;SDS011;51019;46.090;6.350;2023-08-20T14:11:29;16.05;;;4.07;;
64609;SDS011;51019;46.090;6.350;2023-08-20T14:13:58;15.98;;;3.58;;
64609;SDS011;51019;46.090;6.350;2023-08-20T14:16:27;19.00;;;4.45;;
64609;SDS011;51019;46.090;6.350;2023-08-20T14:18:53;12.77;;;3.13;;
64609;SDS011;51019;46.090;6.350;2023-08-20T14:21:20;14.52;;;3.25;;
64609;SDS011;51019;46.090;6.350;2023-08-20T14:23:47;12.00;;;3.65;;
64609;SDS011;51019;46.090;6.350;2023-08-20T14:26:14;13.82;;;3.65;;
64609;SDS011;51019;46.090;6.350;2023-08-20T14:28:42;14.55;;;3.20;;
64609;SDS011;51019;46.090;6.350;2023-08-20T14:31:09;21.05;;;4.03;;
64609;SDS011;51019;46.090;6.350;2023-08-20T14:33:38;15.82;;;3.50;;
64609;SDS011;51019;46.090;6.350;2023-08-20T14:36:05;16.27;;;3.25;;
64609;SDS011;51019;46.090;6.350;2023-08-20T14:38:32;13.82;;;3.55;;